»·PEaware :: SKW3875 KLAS-KLAX

SKW3875 :: KLAS-KLAX

FLIGHT INFORMATION

Flight Status: Arrived
Operator:
SkyWest Airlines
More flights by this operator :: More flights under this callsign
Pilot: Alfredo R. (12181)
Aircraft: CANADAIR CL-600 CRJ-200
(CRJ2)
More flights by this aircraft type
Origin: KLAS McCarran Intl
United States
Destination: KLAX Los Angeles Intl
United States
More flights between these airports :: More routes between these airports
Route: BOACH8 RIKII SHTNR ANJLL4
File this flight plan on PilotEdge
Remarks: RMK / SIMBRIEF
Altitude:
(Current/Filed)
28,000ft
Speed:
(Current/Filed)
382kts
Departed: 21-Nov-20 09:30 PM
Arrived: 21-Nov-20 10:18 PM
Distance/Time
Traveled:
205nm/0:48
Distance/Time
To Go:
Arrived

Flight Plot

Page will automatically refresh every two minutes.

Flight plan parsing failed; only flown route is shown


Map Options




Map Legend


Flown Route
Filed Route
Departure Airport
Arrival Airport
Navaid (VOR, NDB)
Fix

Horizontal Profiles

Position Reports

Time Latitude Longitude Heading Altitude Ground
Speed
21-Nov-20 20:54 36.080119 -115.139277 315 2186ft 0kts
21-Nov-20 20:55 36.080119 -115.139277 315 2186ft 0kts
21-Nov-20 20:56 36.080119 -115.139277 315 2186ft 0kts
21-Nov-20 20:57 36.080119 -115.139277 315 2186ft 0kts
21-Nov-20 20:58 36.080119 -115.139277 315 2186ft 0kts
21-Nov-20 20:59 36.080119 -115.139277 315 2186ft 0kts
21-Nov-20 21:00 36.080119 -115.139277 315 2186ft 0kts
21-Nov-20 21:01 36.080119 -115.139277 315 2186ft 0kts
21-Nov-20 21:02 36.080119 -115.139277 315 2186ft 0kts
21-Nov-20 21:03 36.080119 -115.139277 315 2186ft 0kts
21-Nov-20 21:04 36.080119 -115.139277 315 2186ft 0kts
21-Nov-20 21:05 36.080119 -115.139277 315 2186ft 0kts
21-Nov-20 21:06 36.080119 -115.139277 315 2186ft 0kts
21-Nov-20 21:07 36.080119 -115.139277 315 2186ft 0kts
21-Nov-20 21:08 36.080119 -115.139277 315 2186ft 0kts
21-Nov-20 21:09 36.080119 -115.139277 315 2186ft 0kts
21-Nov-20 21:10 36.080119 -115.139277 315 2186ft 0kts
21-Nov-20 21:11 36.080119 -115.139277 315 2186ft 0kts
21-Nov-20 21:12 36.080119 -115.139277 315 2186ft 0kts
21-Nov-20 21:13 36.080119 -115.139277 315 2186ft 0kts
21-Nov-20 21:14 36.080123 -115.139280 314 2186ft 0kts
21-Nov-20 21:15 36.079952 -115.139070 314 2186ft 2kts
21-Nov-20 21:16 36.079422 -115.138812 45 2186ft 2kts
21-Nov-20 21:17 36.079810 -115.138333 44 2186ft 1kts
21-Nov-20 21:18 36.079823 -115.138319 43 2186ft 0kts
21-Nov-20 21:19 36.079823 -115.138319 43 2186ft 0kts
21-Nov-20 21:20 36.080131 -115.137862 68 2186ft 6kts
21-Nov-20 21:21 36.079260 -115.136326 135 2186ft 0kts
21-Nov-20 21:22 36.079260 -115.136326 135 2186ft 0kts
21-Nov-20 21:23 36.078456 -115.135324 132 2186ft 8kts
21-Nov-20 21:24 36.078282 -115.131675 89 2186ft 13kts
21-Nov-20 21:25 36.078284 -115.126136 89 2186ft 12kts
21-Nov-20 21:26 36.078288 -115.122928 95 2186ft 6kts
21-Nov-20 21:27 36.077644 -115.121752 128 2186ft 2kts
21-Nov-20 21:28 36.076424 -115.122143 270 2186ft 11kts
21-Nov-20 21:29 36.076431 -115.129979 270 2186ft 72kts
21-Nov-20 21:30 36.077638 -115.181557 271 3295ft 204kts
21-Nov-20 21:31 36.049842 -115.260222 207 6124ft 251kts
21-Nov-20 21:32 35.954535 -115.302604 186 8068ft 326kts
21-Nov-20 21:33 35.826653 -115.311153 174 10885ft 315kts
21-Nov-20 21:34 35.720447 -115.299529 172 13856ft 337kts
21-Nov-20 21:35 35.627056 -115.296908 178 16367ft 337kts
21-Nov-20 21:36 35.532934 -115.300429 179 18900ft 341kts
21-Nov-20 21:37 35.444381 -115.346480 206 21036ft 356kts
21-Nov-20 21:38 35.360897 -115.406905 207 23122ft 342kts
21-Nov-20 21:39 35.278674 -115.466467 208 25157ft 345kts
21-Nov-20 21:40 35.196158 -115.526128 211 27120ft 346kts
21-Nov-20 21:41 35.115511 -115.591274 225 28212ft 358kts
21-Nov-20 21:43 35.045520 -115.679204 225 28220ft 362kts
21-Nov-20 21:44 34.975853 -115.767841 228 28218ft 363kts
21-Nov-20 21:45 34.905278 -115.857669 230 28221ft 369kts
21-Nov-20 21:46 34.833754 -115.948604 231 28231ft 376kts
21-Nov-20 21:47 34.760398 -116.040593 231 28229ft 382kts
21-Nov-20 21:48 34.687039 -116.135012 231 28228ft 387kts
21-Nov-20 21:49 34.613293 -116.228740 231 28219ft 377kts
21-Nov-20 21:50 34.541949 -116.319128 231 28223ft 367kts
21-Nov-20 21:51 34.471486 -116.408184 231 28055ft 370kts
21-Nov-20 21:52 34.406958 -116.503334 245 26418ft 362kts
21-Nov-20 21:53 34.361696 -116.611173 246 24772ft 357kts
21-Nov-20 21:54 34.318698 -116.716404 246 23183ft 351kts
21-Nov-20 21:55 34.277908 -116.817700 246 21658ft 348kts
21-Nov-20 21:56 34.237254 -116.918410 246 20135ft 346kts
21-Nov-20 21:57 34.200852 -117.022109 253 18940ft 332kts
21-Nov-20 21:58 34.172399 -117.126289 253 17731ft 324kts
21-Nov-20 21:59 34.124009 -117.211571 230 16552ft 323kts
21-Nov-20 21:59 34.118996 -117.291621 304 15602ft 311kts
21-Nov-20 22:01 34.119832 -117.393534 219 14303ft 320kts
21-Nov-20 22:01 34.050527 -117.421652 198 13184ft 303kts
21-Nov-20 22:03 33.991071 -117.481575 260 11398ft 257kts
21-Nov-20 22:03 33.982627 -117.546712 263 11012ft 248kts
21-Nov-20 22:04 33.974050 -117.627064 263 10989ft 236kts
21-Nov-20 22:06 33.975537 -117.708010 280 10975ft 214kts
21-Nov-20 22:06 33.988203 -117.770576 289 10277ft 246kts
21-Nov-20 22:07 34.009961 -117.844955 287 8904ft 235kts
21-Nov-20 22:08 34.005346 -117.909887 262 8104ft 207kts
21-Nov-20 22:09 33.999442 -117.967428 280 7813ft 196kts
21-Nov-20 22:10 33.992106 -118.031265 256 6214ft 228kts
21-Nov-20 22:11 33.982728 -118.097724 262 4308ft 215kts
21-Nov-20 22:12 33.974553 -118.157911 264 3922ft 187kts
21-Nov-20 22:13 33.970788 -118.215054 265 3016ft 206kts
21-Nov-20 22:14 33.965671 -118.268924 263 2164ft 185kts
21-Nov-20 22:15 33.959454 -118.329971 263 1157ft 164kts
21-Nov-20 22:16 33.954422 -118.378827 263 433ft 147kts
21-Nov-20 22:17 33.949745 -118.425025 262 130ft 38kts
21-Nov-20 22:18 33.948633 -118.430446 246 130ft 4kts
21-Nov-20 22:19 33.946847 -118.430467 132 130ft 8kts
21-Nov-20 22:20 33.946167 -118.428976 86 130ft 6kts
21-Nov-20 22:21 33.946550 -118.425172 82 130ft 20kts
21-Nov-20 22:22 33.947140 -118.419328 83 130ft 25kts
21-Nov-20 22:23 33.948057 -118.411701 82 130ft 26kts
21-Nov-20 22:24 33.948293 -118.406033 163 130ft 10kts
21-Nov-20 22:25 33.946953 -118.404915 115 130ft 0kts

Navigation Log

Ident Type
Flight plan parsing failed, navigation log unavailable